createdAt,value
2022-11-05T00:01:01.024Z,65.31
2022-11-05T00:03:46.780Z,66.18
2022-11-05T00:06:32.422Z,65.88
2022-11-05T00:09:18.408Z,66.05
2022-11-05T00:12:05.368Z,65.32
2022-11-05T00:14:55.683Z,65.09
2022-11-05T00:17:22.807Z,64.86
2022-11-05T00:19:49.851Z,65.77
2022-11-05T00:22:35.771Z,66.25
2022-11-05T00:25:14.872Z,66.74
2022-11-05T00:27:42.293Z,67.35
2022-11-05T00:30:10.088Z,67.58
2022-11-05T00:32:37.187Z,67.70
2022-11-05T00:35:06.063Z,67.07
2022-11-05T00:37:33.319Z,67.57
2022-11-05T00:40:00.409Z,67.12
2022-11-05T00:42:45.746Z,66.11
2022-11-05T00:45:13.450Z,66.98
2022-11-05T00:47:59.180Z,66.64
2022-11-05T00:50:26.465Z,66.60
2022-11-05T00:52:55.728Z,66.02
2022-11-05T00:55:23.181Z,66.16
2022-11-05T00:57:50.767Z,65.12
2022-11-05T01:00:18.626Z,65.45
2022-11-05T01:02:46.171Z,65.25
2022-11-05T01:05:14.186Z,65.74
2022-11-05T01:07:41.381Z,66.95
2022-11-05T01:10:08.888Z,67.86
2022-11-05T01:12:36.081Z,67.96
2022-11-05T01:15:03.409Z,68.01
2022-11-05T01:17:30.660Z,68.57
2022-11-05T01:19:57.719Z,69.04
2022-11-05T01:22:24.743Z,68.57
2022-11-05T01:24:51.788Z,67.98
2022-11-05T01:27:18.858Z,67.44
2022-11-05T01:29:45.900Z,67.49
2022-11-05T01:32:12.942Z,67.60
2022-11-05T01:34:39.986Z,67.22
2022-11-05T01:37:07.073Z,68.18
2022-11-05T01:39:34.157Z,68.62
2022-11-05T01:42:01.515Z,68.16
2022-11-05T01:44:59.577Z,68.01
2022-11-05T01:47:29.582Z,68.56
2022-11-05T01:50:00.816Z,68.64
2022-11-05T01:52:32.190Z,68.84
2022-11-05T01:54:59.849Z,69.65
2022-11-05T01:57:28.638Z,70.35
2022-11-05T01:59:59.960Z,70.17
2022-11-05T02:02:27.690Z,69.80
2022-11-05T02:05:01.339Z,69.88
2022-11-05T02:07:31.317Z,68.64
2022-11-05T02:10:10.407Z,68.01
2022-11-05T02:12:41.868Z,68.65
2022-11-05T02:15:59.759Z,70.39
2022-11-05T02:18:52.772Z,70.69
2022-11-05T02:21:34.962Z,71.17
2022-11-05T02:24:01.933Z,70.95
2022-11-05T02:26:47.493Z,71.10
2022-11-05T02:29:55.461Z,70.91
2022-11-05T02:32:58.056Z,70.76
2022-11-05T02:35:53.960Z,70.14
2022-11-05T02:39:06.021Z,70.60
2022-11-05T02:41:40.155Z,70.49
2022-11-05T02:44:30.116Z,70.40
2022-11-05T02:46:58.860Z,70.94
2022-11-05T02:49:57.619Z,70.90
2022-11-05T02:52:42.829Z,70.93
2022-11-05T02:55:27.406Z,70.75
2022-11-05T02:57:54.797Z,70.22
2022-11-05T03:00:55.755Z,70.26
2022-11-05T03:03:45.327Z,70.51
2022-11-05T03:06:12.347Z,69.59
2022-11-05T03:08:39.361Z,68.83
2022-11-05T03:11:17.790Z,69.61
2022-11-05T03:13:58.487Z,69.15
2022-11-05T03:16:35.681Z,69.86
2022-11-05T03:19:24.600Z,69.64
2022-11-05T03:21:58.227Z,68.79
2022-11-05T03:24:35.817Z,70.28
2022-11-05T03:27:08.982Z,70.46
2022-11-05T03:29:43.694Z,70.56
2022-11-05T03:32:12.027Z,69.61
2022-11-05T03:34:43.541Z,68.21
2022-11-05T03:37:11.825Z,69.18
2022-11-05T03:39:52.987Z,69.55
2022-11-05T03:42:26.585Z,70.08
2022-11-05T03:44:58.332Z,70.04
2022-11-05T03:47:33.796Z,70.20
2022-11-05T03:50:19.222Z,70.41
2022-11-05T03:52:52.599Z,69.72
2022-11-05T03:55:29.348Z,69.70
2022-11-05T03:57:58.626Z,69.68
2022-11-05T04:00:25.839Z,69.50
2022-11-05T04:02:53.082Z,69.44
2022-11-05T04:05:20.205Z,69.68
2022-11-05T04:08:09.939Z,70.71
2022-11-05T04:10:58.805Z,70.96
2022-11-05T04:13:26.039Z,71.47
2022-11-05T04:16:13.366Z,71.36
2022-11-05T04:18:40.847Z,71.50
2022-11-05T04:21:27.659Z,71.80
2022-11-05T04:24:10.631Z,72.44
2022-11-05T04:26:40.965Z,72.01
2022-11-05T04:29:27.086Z,70.96
2022-11-05T04:31:54.897Z,71.33
2022-11-05T04:34:22.801Z,72.06
2022-11-05T04:36:51.498Z,72.57
2022-11-05T04:39:19.676Z,73.12
2022-11-05T04:41:48.704Z,72.79
2022-11-05T04:44:16.993Z,72.13
2022-11-05T04:46:44.162Z,70.36
2022-11-05T04:49:11.301Z,70.34
2022-11-05T04:51:38.377Z,71.41
2022-11-05T04:54:05.518Z,71.72
2022-11-05T04:56:32.669Z,72.20
2022-11-05T04:58:59.796Z,71.88
2022-11-05T05:01:26.935Z,71.82
2022-11-05T05:03:55.002Z,71.57
2022-11-05T05:06:23.058Z,71.08
2022-11-05T05:08:51.736Z,71.83
2022-11-05T05:11:21.010Z,70.62
2022-11-05T05:13:49.316Z,70.29
2022-11-05T05:16:23.889Z,71.44
2022-11-05T05:18:52.078Z,72.13
2022-11-05T05:21:46.399Z,72.46
2022-11-05T05:24:20.076Z,71.42
2022-11-05T05:26:51.088Z,70.88
2022-11-05T05:29:18.199Z,70.42
2022-11-05T05:31:45.482Z,69.68
2022-11-05T05:34:14.200Z,69.63
2022-11-05T05:36:41.569Z,68.99
2022-11-05T05:39:11.002Z,69.75
2022-11-05T05:41:38.261Z,68.93
2022-11-05T05:44:06.416Z,68.84
2022-11-05T05:46:36.612Z,68.80
2022-11-05T05:49:06.657Z,68.69
2022-11-05T05:51:36.558Z,68.73
2022-11-05T05:54:03.750Z,69.03
2022-11-05T05:56:30.878Z,69.97
2022-11-05T05:58:57.940Z,70.82
2022-11-05T06:01:25.005Z,71.46
2022-11-05T06:03:52.094Z,70.96
2022-11-05T06:06:22.741Z,70.00
2022-11-05T06:08:49.826Z,70.90
2022-11-05T06:11:16.914Z,71.44
2022-11-05T06:13:44.004Z,71.65
2022-11-05T06:16:11.312Z,70.69
2022-11-05T06:18:38.416Z,69.21
2022-11-05T06:21:07.933Z,69.86
2022-11-05T06:23:36.690Z,69.23
2022-11-05T06:26:14.814Z,68.00
2022-11-05T06:28:42.778Z,69.09
2022-11-05T06:31:11.313Z,69.78
2022-11-05T06:33:39.569Z,69.69
2022-11-05T06:36:08.033Z,69.60
2022-11-05T06:38:36.809Z,69.96
2022-11-05T06:41:09.007Z,71.09
2022-11-05T06:43:38.153Z,70.42
2022-11-05T06:46:05.371Z,69.38
2022-11-05T06:48:33.108Z,68.69
2022-11-05T06:51:00.273Z,66.98
2022-11-05T06:53:27.624Z,66.96
2022-11-05T06:55:54.955Z,66.12
2022-11-05T06:58:22.205Z,64.89
2022-11-05T07:00:49.301Z,66.00
2022-11-05T07:03:16.432Z,66.61
2022-11-05T07:05:46.655Z,66.53
2022-11-05T07:08:14.249Z,66.32
2022-11-05T07:10:41.362Z,65.25
2022-11-05T07:13:09.056Z,64.92
2022-11-05T07:15:37.412Z,65.15
2022-11-05T07:18:07.329Z,66.24
2022-11-05T07:20:34.836Z,66.75
2022-11-05T07:23:05.676Z,66.38
2022-11-05T07:25:34.293Z,65.71
2022-11-05T07:28:02.354Z,66.07
2022-11-05T07:30:32.460Z,66.56
2022-11-05T07:32:59.960Z,66.56
2022-11-05T07:35:27.149Z,65.04
2022-11-05T07:37:55.518Z,63.86
2022-11-05T07:40:25.254Z,63.24
2022-11-05T07:42:54.638Z,62.78
2022-11-05T07:45:22.292Z,63.54
2022-11-05T07:47:57.849Z,63.57
2022-11-05T07:50:34.236Z,64.49
2022-11-05T07:53:10.292Z,65.05
2022-11-05T07:55:37.905Z,65.07
2022-11-05T07:58:04.940Z,65.73
2022-11-05T08:00:33.823Z,64.68
2022-11-05T08:03:13.048Z,64.61
2022-11-05T08:05:44.712Z,64.49
2022-11-05T08:08:17.235Z,63.79
2022-11-05T08:10:44.556Z,63.82
2022-11-05T08:13:13.428Z,63.73
2022-11-05T08:15:42.299Z,64.43
2022-11-05T08:18:17.193Z,64.08
2022-11-05T08:20:45.154Z,63.76
2022-11-05T08:23:12.817Z,64.04
2022-11-05T08:25:40.624Z,63.69
2022-11-05T08:28:11.668Z,63.41
2022-11-05T08:30:38.613Z,63.66
2022-11-05T08:33:11.660Z,62.64
2022-11-05T08:35:39.754Z,62.77
2022-11-05T08:38:09.134Z,62.72
2022-11-05T08:40:37.242Z,63.62
2022-11-05T08:43:06.972Z,63.88
2022-11-05T08:45:38.331Z,63.24
2022-11-05T08:48:08.896Z,62.47
2022-11-05T08:50:37.378Z,63.08
2022-11-05T08:53:06.875Z,63.10
2022-11-05T08:55:34.410Z,63.06
2022-11-05T08:58:04.220Z,63.89
2022-11-05T09:00:33.819Z,63.86
2022-11-05T09:03:02.874Z,64.54
2022-11-05T09:05:31.670Z,63.61
2022-11-05T09:08:01.373Z,62.71
2022-11-05T09:10:29.073Z,63.08
2022-11-05T09:12:56.448Z,63.47
2022-11-05T09:15:24.607Z,64.18
2022-11-05T09:17:51.947Z,63.15
2022-11-05T09:20:19.100Z,62.99
2022-11-05T09:22:46.954Z,62.74
2022-11-05T09:25:15.896Z,62.73
2022-11-05T09:27:43.886Z,63.69
2022-11-05T09:30:12.851Z,62.85
2022-11-05T09:32:40.586Z,62.58
2022-11-05T09:35:08.420Z,63.46
2022-11-05T09:37:37.546Z,62.60
2022-11-05T09:40:05.706Z,63.24
2022-11-05T09:42:41.042Z,64.36
2022-11-05T09:45:17.260Z,65.65
2022-11-05T09:47:52.543Z,65.09
2022-11-05T09:50:36.783Z,64.65
2022-11-05T09:53:05.273Z,64.58
2022-11-05T09:55:45.209Z,64.51
2022-11-05T09:58:23.245Z,64.21
2022-11-05T10:00:53.476Z,64.33
2022-11-05T10:03:23.898Z,64.30
2022-11-05T10:05:52.448Z,63.79
2022-11-05T10:08:24.585Z,63.30
2022-11-05T10:10:56.053Z,63.58
2022-11-05T10:13:35.942Z,63.03
2022-11-05T10:16:05.701Z,62.52
2022-11-05T10:18:39.738Z,62.88
2022-11-05T10:21:07.917Z,63.11
2022-11-05T10:23:36.466Z,63.17
2022-11-05T10:26:09.325Z,63.55
2022-11-05T10:28:36.794Z,64.10
2022-11-05T10:31:12.102Z,64.14
2022-11-05T10:33:52.134Z,64.18
2022-11-05T10:36:25.770Z,63.77
2022-11-05T10:38:54.227Z,63.73
2022-11-05T10:41:42.273Z,62.53
2022-11-05T10:44:27.536Z,61.38
2022-11-05T10:47:31.924Z,62.03
2022-11-05T10:50:05.399Z,64.57
2022-11-05T10:52:42.559Z,64.82
2022-11-05T10:55:38.772Z,64.10
2022-11-05T10:58:08.870Z,65.08
2022-11-05T11:00:36.646Z,64.47
2022-11-05T11:03:06.602Z,63.65
2022-11-05T11:05:38.119Z,62.99
2022-11-05T11:08:11.048Z,63.32
2022-11-05T11:10:42.978Z,63.13
2022-11-05T11:13:22.077Z,64.25
2022-11-05T11:15:51.088Z,63.86
2022-11-05T11:18:27.967Z,63.63
2022-11-05T11:21:05.972Z,64.13
2022-11-05T11:23:40.746Z,63.79
2022-11-05T11:26:09.049Z,63.42
2022-11-05T11:28:56.732Z,62.80
2022-11-05T11:31:26.929Z,62.02
2022-11-05T11:34:11.715Z,61.43
2022-11-05T11:36:46.102Z,61.31
2022-11-05T11:39:22.297Z,61.75
2022-11-05T11:41:55.739Z,62.29
2022-11-05T11:44:29.747Z,62.63
2022-11-05T11:47:02.106Z,62.98
2022-11-05T11:49:38.250Z,62.61
2022-11-05T11:52:29.917Z,62.70
2022-11-05T11:55:18.684Z,62.56
2022-11-05T11:57:47.291Z,63.46
2022-11-05T12:00:15.978Z,63.48
2022-11-05T12:03:01.855Z,63.29
2022-11-05T12:05:48.390Z,63.88
2022-11-05T12:08:58.213Z,64.06
2022-11-05T12:11:41.894Z,63.68
2022-11-05T12:14:42.324Z,65.06
2022-11-05T12:17:21.120Z,65.85
2022-11-05T12:20:31.147Z,64.64
2022-11-05T12:23:16.544Z,64.21
2022-11-05T12:26:04.262Z,63.60
2022-11-05T12:29:16.588Z,64.38
2022-11-05T12:31:50.115Z,63.78
2022-11-05T12:34:42.815Z,64.48
2022-11-05T12:37:25.190Z,64.74
2022-11-05T12:40:29.342Z,63.68
2022-11-05T12:43:10.542Z,62.80
2022-11-05T12:46:15.011Z,63.27
2022-11-05T12:49:00.831Z,63.51
2022-11-05T12:51:27.819Z,63.57
2022-11-05T12:54:23.411Z,63.55
2022-11-05T12:56:55.761Z,64.60
2022-11-05T12:59:34.792Z,64.83
2022-11-05T13:02:07.712Z,65.45
2022-11-05T13:04:45.739Z,65.57
2022-11-05T13:07:19.444Z,64.74
2022-11-05T13:09:54.644Z,63.86
2022-11-05T13:12:25.521Z,64.00
2022-11-05T13:14:57.597Z,63.90
2022-11-05T13:17:32.786Z,64.97
2022-11-05T13:20:17.295Z,65.45
2022-11-05T13:22:48.399Z,64.02
2022-11-05T13:25:28.730Z,63.78
2022-11-05T13:28:19.333Z,65.08
2022-11-05T13:30:49.331Z,64.63
2022-11-05T13:33:21.947Z,64.97
2022-11-05T13:36:16.984Z,66.11
2022-11-05T13:39:00.340Z,66.71
2022-11-05T13:41:30.428Z,66.39
2022-11-05T13:44:15.594Z,65.19
2022-11-05T13:46:55.254Z,66.36
2022-11-05T13:50:00.704Z,65.94
2022-11-05T13:53:04.943Z,64.98
2022-11-05T13:55:53.881Z,65.84
2022-11-05T13:58:36.283Z,66.24
2022-11-05T14:01:10.278Z,66.52
2022-11-05T14:03:38.339Z,67.66
2022-11-05T14:06:10.280Z,66.76
2022-11-05T14:08:44.297Z,66.58
2022-11-05T14:11:32.936Z,68.07
2022-11-05T14:14:05.594Z,67.77
2022-11-05T14:16:50.819Z,67.12
2022-11-05T14:19:17.881Z,66.88
2022-11-05T14:21:52.233Z,66.19
2022-11-05T14:24:27.535Z,65.02
2022-11-05T14:27:00.552Z,65.41
2022-11-05T14:29:41.008Z,65.13
2022-11-05T14:32:19.942Z,65.21
2022-11-05T14:35:14.673Z,66.34
2022-11-05T14:37:55.275Z,67.14
2022-11-05T14:40:22.323Z,67.18
2022-11-05T14:42:55.644Z,67.60
2022-11-05T14:45:35.044Z,66.50
2022-11-05T14:48:05.932Z,66.74
2022-11-05T14:50:42.972Z,66.13
2022-11-05T14:53:12.561Z,66.49
2022-11-05T14:55:42.734Z,66.78
2022-11-05T14:58:31.798Z,67.59
2022-11-05T15:01:00.867Z,67.02
2022-11-05T15:03:47.977Z,66.95
2022-11-05T15:06:33.542Z,67.76
2022-11-05T15:09:03.641Z,67.53
2022-11-05T15:11:37.242Z,67.57
2022-11-05T15:14:13.450Z,67.62
2022-11-05T15:16:43.509Z,67.25
2022-11-05T15:19:22.540Z,67.03
2022-11-05T15:21:50.896Z,68.42
2022-11-05T15:24:20.376Z,68.40
2022-11-05T15:26:56.115Z,68.33
2022-11-05T15:29:28.315Z,68.47
2022-11-05T15:31:56.479Z,69.40
2022-11-05T15:34:23.562Z,69.22
2022-11-05T15:36:52.953Z,69.25
2022-11-05T15:39:45.227Z,68.95
2022-11-05T15:42:23.647Z,68.25
2022-11-05T15:44:55.049Z,66.98
2022-11-05T15:47:34.282Z,67.35
2022-11-05T15:50:14.739Z,67.02
2022-11-05T15:52:54.658Z,67.24
2022-11-05T15:55:24.521Z,67.57
2022-11-05T15:58:10.937Z,67.48
2022-11-05T16:00:37.981Z,67.72
2022-11-05T16:03:23.922Z,68.96
2022-11-05T16:05:51.341Z,68.97
2022-11-05T16:08:27.759Z,69.29
2022-11-05T16:10:57.735Z,68.69
2022-11-05T16:13:41.900Z,68.64
2022-11-05T16:16:15.178Z,68.84
2022-11-05T16:18:43.738Z,68.89
2022-11-05T16:21:14.407Z,68.59
2022-11-05T16:23:58.137Z,68.52
2022-11-05T16:27:02.324Z,69.01
2022-11-05T16:29:32.249Z,69.91
2022-11-05T16:32:01.907Z,71.16
2022-11-05T16:34:37.777Z,70.77
2022-11-05T16:37:13.678Z,71.51
2022-11-05T16:39:41.282Z,72.60
2022-11-05T16:42:36.724Z,71.67
2022-11-05T16:45:04.599Z,71.09
2022-11-05T16:47:31.923Z,71.69
2022-11-05T16:49:59.105Z,70.68
2022-11-05T16:52:26.238Z,71.95
2022-11-05T16:54:53.440Z,73.44
2022-11-05T16:57:31.804Z,73.46
2022-11-05T17:00:00.461Z,73.50
2022-11-05T17:02:27.812Z,73.42
2022-11-05T17:04:55.170Z,73.16
2022-11-05T17:07:22.431Z,73.40
2022-11-05T17:09:49.663Z,72.79
2022-11-05T17:12:17.038Z,73.33
2022-11-05T17:14:44.244Z,73.75
2022-11-05T17:17:11.347Z,73.89
2022-11-05T17:19:42.443Z,73.63
2022-11-05T17:22:09.761Z,74.25
2022-11-05T17:24:36.902Z,73.82
2022-11-05T17:27:04.058Z,72.11
2022-11-05T17:29:31.164Z,71.20
2022-11-05T17:31:58.223Z,71.27
2022-11-05T17:34:25.295Z,71.35
2022-11-05T17:36:52.397Z,71.27
2022-11-05T17:39:19.455Z,72.29
2022-11-05T17:41:48.992Z,71.14
2022-11-05T17:44:16.057Z,71.41
2022-11-05T17:46:44.637Z,71.79
2022-11-05T17:49:11.745Z,72.38
2022-11-05T17:51:38.883Z,71.91
2022-11-05T17:54:07.603Z,70.72
2022-11-05T17:56:40.277Z,69.95
2022-11-05T17:59:10.480Z,70.17
2022-11-05T18:01:43.161Z,69.78
2022-11-05T18:04:10.804Z,70.17
2022-11-05T18:06:41.282Z,70.61
2022-11-05T18:09:09.763Z,71.33
2022-11-05T18:11:37.817Z,70.70
2022-11-05T18:14:05.160Z,70.91
2022-11-05T18:16:32.966Z,70.75
2022-11-05T18:19:00.425Z,69.64
2022-11-05T18:21:27.540Z,70.65
2022-11-05T18:23:54.590Z,69.74
2022-11-05T18:26:21.875Z,68.84
2022-11-05T18:28:48.938Z,69.28
2022-11-05T18:31:20.688Z,69.13
2022-11-05T18:33:49.822Z,69.43
2022-11-05T18:36:18.395Z,69.51
2022-11-05T18:38:45.884Z,68.80
2022-11-05T18:41:13.071Z,69.18
2022-11-05T18:43:40.187Z,69.17
2022-11-05T18:46:07.984Z,68.99
2022-11-05T18:48:35.658Z,68.44
2022-11-05T18:51:15.337Z,67.87
2022-11-05T18:53:42.610Z,69.24
2022-11-05T18:56:10.266Z,68.87
2022-11-05T18:58:38.538Z,68.84
2022-11-05T19:01:13.526Z,68.54
2022-11-05T19:03:41.236Z,69.76
2022-11-05T19:06:09.157Z,70.16
2022-11-05T19:08:36.930Z,69.78
2022-11-05T19:11:18.511Z,69.32
2022-11-05T19:13:45.767Z,68.30
2022-11-05T19:16:19.306Z,67.91
2022-11-05T19:18:47.113Z,68.65
2022-11-05T19:21:23.083Z,68.21
2022-11-05T19:23:50.933Z,66.94
2022-11-05T19:26:28.402Z,67.64
2022-11-05T19:28:58.863Z,67.42
2022-11-05T19:31:26.981Z,66.82
2022-11-05T19:33:55.273Z,66.54
2022-11-05T19:36:24.226Z,66.00
2022-11-05T19:39:01.352Z,66.13
2022-11-05T19:41:31.055Z,66.35
2022-11-05T19:43:59.461Z,67.00
2022-11-05T19:46:26.588Z,66.77
2022-11-05T19:48:54.224Z,66.65
2022-11-05T19:51:27.863Z,66.85
2022-11-05T19:53:55.445Z,66.95
2022-11-05T19:56:28.693Z,66.22
2022-11-05T19:58:57.304Z,66.54
2022-11-05T20:01:26.908Z,66.35
2022-11-05T20:03:55.651Z,66.59
2022-11-05T20:06:29.422Z,66.30
2022-11-05T20:09:20.493Z,66.49
2022-11-05T20:11:45.110Z,66.60
2022-11-05T20:14:12.376Z,66.59
2022-11-05T20:16:42.355Z,66.99
2022-11-05T20:19:14.029Z,66.96
2022-11-05T20:21:41.968Z,66.59
2022-11-05T20:24:11.824Z,66.63
2022-11-05T20:26:39.736Z,66.49
2022-11-05T20:29:07.112Z,66.15
2022-11-05T20:31:34.262Z,65.58
2022-11-05T20:34:01.532Z,65.37
2022-11-05T20:36:28.674Z,65.72
2022-11-05T20:38:58.210Z,65.19
2022-11-05T20:41:26.379Z,65.48
2022-11-05T20:43:53.925Z,65.49
2022-11-05T20:46:22.639Z,66.43
2022-11-05T20:48:50.471Z,66.57
2022-11-05T20:51:21.263Z,66.10
2022-11-05T20:53:49.172Z,64.99
2022-11-05T20:56:24.345Z,65.52
2022-11-05T20:58:52.008Z,66.15
2022-11-05T21:01:20.358Z,66.12
2022-11-05T21:03:47.925Z,66.24
2022-11-05T21:06:15.787Z,65.33
2022-11-05T21:08:43.879Z,65.54
2022-11-05T21:11:10.987Z,65.17
2022-11-05T21:13:38.489Z,65.16
2022-11-05T21:16:08.144Z,65.21
2022-11-05T21:18:37.952Z,65.78
2022-11-05T21:21:10.223Z,65.29
2022-11-05T21:23:37.370Z,65.29
2022-11-05T21:26:11.461Z,65.18
2022-11-05T21:28:39.897Z,64.14
2022-11-05T21:31:08.057Z,64.55
2022-11-05T21:33:35.521Z,64.51
2022-11-05T21:36:07.968Z,64.51
2022-11-05T21:38:35.097Z,64.40
2022-11-05T21:41:03.479Z,64.28
2022-11-05T21:43:30.788Z,64.33
2022-11-05T21:46:01.927Z,64.48
2022-11-05T21:48:29.519Z,64.09
2022-11-05T21:51:15.374Z,65.27
2022-11-05T21:54:00.901Z,64.38
2022-11-05T21:56:46.999Z,63.71
2022-11-05T21:59:36.657Z,62.42
2022-11-05T22:02:04.718Z,62.63
2022-11-05T22:04:35.409Z,61.80
2022-11-05T22:07:03.519Z,61.33
2022-11-05T22:09:30.953Z,61.33
2022-11-05T22:11:58.447Z,61.89
2022-11-05T22:14:26.586Z,62.10
2022-11-05T22:16:54.456Z,62.07
2022-11-05T22:19:21.929Z,61.43
2022-11-05T22:21:49.223Z,61.78
2022-11-05T22:24:16.774Z,61.91
2022-11-05T22:26:44.732Z,61.84
2022-11-05T22:29:12.597Z,61.86
2022-11-05T22:31:40.115Z,61.53
2022-11-05T22:34:08.363Z,60.80
2022-11-05T22:36:35.952Z,60.85
2022-11-05T22:39:04.206Z,60.50
2022-11-05T22:41:31.385Z,59.57
2022-11-05T22:43:58.522Z,60.23
2022-11-05T22:46:26.942Z,59.51
2022-11-05T22:48:54.803Z,60.48
2022-11-05T22:51:24.464Z,61.46
2022-11-05T22:53:52.012Z,61.93
2022-11-05T22:56:21.659Z,60.80
2022-11-05T22:58:49.283Z,61.11
2022-11-05T23:01:17.448Z,60.78
2022-11-05T23:03:46.763Z,61.19
2022-11-05T23:06:38.001Z,62.45
2022-11-05T23:09:30.471Z,61.95
2022-11-05T23:11:57.569Z,61.94
2022-11-05T23:14:24.720Z,62.17
2022-11-05T23:17:10.197Z,62.79
2022-11-05T23:19:55.703Z,63.38
2022-11-05T23:22:44.990Z,63.29
2022-11-05T23:25:18.446Z,61.79
2022-11-05T23:27:48.003Z,62.19
2022-11-05T23:30:20.283Z,62.14
2022-11-05T23:32:48.270Z,62.65
2022-11-05T23:35:15.726Z,63.04
2022-11-05T23:38:01.388Z,62.17
2022-11-05T23:40:31.061Z,60.39
2022-11-05T23:43:16.645Z,61.30
2022-11-05T23:46:03.121Z,61.44
2022-11-05T23:48:35.236Z,61.19
2022-11-05T23:51:03.705Z,60.98
2022-11-05T23:53:34.340Z,60.43
2022-11-05T23:56:05.242Z,60.15
2022-11-05T23:58:32.402Z,60.19
